Time;durP1;ratioP1;P1;durP2;ratioP2;P2;SDS_P1;SDS_P2;PMS_P1;PMS_P2;Temp;Humidity;BMP_temperature;BMP_pressure;BME280_temperature;BME280_humidity;BME280_pressure;Samples;Min_cycle;Max_cycle;Signal;HPM_P1;HPM_P2
2023/07/26 00:01:25;;;;;;;23.27;13.10;;;15.40;1.00;;;;;;5007362;28;20178;-75
2023/07/26 00:03:54;;;;;;;19.53;13.50;;;15.40;1.00;;;;;;5008090;28;20765;-76
2023/07/26 00:06:20;;;;;;;21.40;13.73;;;15.40;1.00;;;;;;5007662;28;20170;-77
2023/07/26 00:08:45;;;;;;;20.63;13.03;;;15.50;1.00;;;;;;5008699;28;20842;-76
2023/07/26 00:11:11;;;;;;;19.53;13.57;;;15.50;1.00;;;;;;5009335;28;20201;-76
2023/07/26 00:13:36;;;;;;;22.57;13.83;;;15.50;1.00;;;;;;5007332;28;20198;-75
2023/07/26 00:16:02;;;;;;;21.13;13.37;;;15.50;1.00;;;;;;5008758;28;20492;-75
2023/07/26 00:18:28;;;;;;;21.43;13.67;;;15.40;1.00;;;;;;5005926;28;20269;-76
2023/07/26 00:20:53;;;;;;;29.73;13.83;;;15.40;1.00;;;;;;5009056;28;20187;-76
2023/07/26 00:23:19;;;;;;;22.23;13.90;;;15.40;1.00;;;;;;5008092;28;20195;-76
2023/07/26 00:25:44;;;;;;;22.37;12.93;;;15.40;1.00;;;;;;5008308;28;20182;-74
2023/07/26 00:28:10;;;;;;;21.00;13.37;;;15.40;1.00;;;;;;5007467;28;20194;-77
2023/07/26 00:30:35;;;;;;;25.70;13.70;;;15.40;1.00;;;;;;5008020;28;20652;-75
2023/07/26 00:33:01;;;;;;;25.37;14.40;;;15.40;1.00;;;;;;5004476;28;20617;-76
2023/07/26 00:35:32;;;;;;;20.27;13.93;;;15.40;1.00;;;;;;5007555;28;20239;-76
2023/07/26 00:37:57;;;;;;;17.73;12.87;;;15.40;1.00;;;;;;5004318;28;20202;-76
2023/07/26 00:40:23;;;;;;;23.10;12.47;;;15.40;1.00;;;;;;5006641;28;20487;-77
2023/07/26 00:42:48;;;;;;;18.13;12.63;;;15.40;1.00;;;;;;5006093;28;20175;-76
2023/07/26 00:45:14;;;;;;;20.33;12.83;;;15.40;1.00;;;;;;5006122;28;20190;-76
2023/07/26 00:47:39;;;;;;;21.20;12.97;;;15.30;1.00;;;;;;5007680;28;20285;-76
2023/07/26 00:50:06;;;;;;;28.00;12.37;;;15.20;1.00;;;;;;5006609;28;20202;-75
2023/07/26 00:52:31;;;;;;;25.47;13.50;;;15.20;1.00;;;;;;5004890;28;20244;-76
2023/07/26 00:55:00;;;;;;;17.03;12.70;;;15.10;1.00;;;;;;5006919;28;20959;-77
2023/07/26 00:57:25;;;;;;;16.23;12.40;;;15.10;1.00;;;;;;5007827;28;20653;-75
2023/07/26 00:59:51;;;;;;;22.23;13.50;;;15.10;1.00;;;;;;5008848;28;20461;-76
2023/07/26 01:02:16;;;;;;;19.33;12.30;;;15.10;1.00;;;;;;5006394;28;20265;-77
2023/07/26 01:04:43;;;;;;;17.90;11.93;;;15.30;1.00;;;;;;5007227;28;20265;-75
2023/07/26 01:07:17;;;;;;;13.10;10.93;;;15.10;1.00;;;;;;5007338;28;20206;-77
2023/07/26 01:09:49;;;;;;;13.47;10.20;;;15.10;1.00;;;;;;5007624;28;20443;-75
2023/07/26 01:12:21;;;;;;;17.83;11.03;;;15.00;1.00;;;;;;5006829;28;20441;-76
2023/07/26 01:15:06;;;;;;;19.37;11.70;;;15.00;1.00;;;;;;5006779;28;21270;-75
2023/07/26 01:17:32;;;;;;;13.53;10.97;;;15.00;1.00;;;;;;5003771;28;20496;-76
2023/07/26 01:19:57;;;;;;;16.43;10.30;;;15.10;1.00;;;;;;5006059;28;20958;-77
2023/07/26 01:22:23;;;;;;;18.13;11.70;;;15.10;1.00;;;;;;5006569;28;20194;-76
2023/07/26 01:24:48;;;;;;;16.83;11.87;;;15.00;1.00;;;;;;5006369;28;20194;-76
2023/07/26 01:27:14;;;;;;;17.10;10.87;;;15.10;1.00;;;;;;5005349;28;20225;-76
2023/07/26 01:29:40;;;;;;;15.57;10.50;;;15.10;1.00;;;;;;5007830;28;20189;-76
2023/07/26 01:32:08;;;;;;;16.70;10.10;;;15.00;1.00;;;;;;5003005;28;20321;-76
2023/07/26 01:34:35;;;;;;;14.67;10.60;;;15.00;1.00;;;;;;5006620;28;20193;-76
2023/07/26 01:37:02;;;;;;;15.33;11.10;;;15.00;1.00;;;;;;5006678;28;20533;-78
2023/07/26 01:39:29;;;;;;;16.10;10.50;;;14.90;1.00;;;;;;5006278;28;20809;-76
2023/07/26 01:41:55;;;;;;;17.07;10.47;;;14.80;1.00;;;;;;5006391;28;20433;-75
2023/07/26 01:44:20;;;;;;;15.43;10.80;;;14.80;1.00;;;;;;5007836;28;20519;-77
2023/07/26 01:46:46;;;;;;;15.93;11.07;;;14.80;1.00;;;;;;5003336;28;21066;-75
2023/07/26 01:49:12;;;;;;;14.70;10.93;;;14.80;1.00;;;;;;5004460;28;20190;-76
2023/07/26 01:51:38;;;;;;;15.90;10.73;;;14.80;1.00;;;;;;5004973;28;20241;-75
2023/07/26 01:54:04;;;;;;;13.13;10.10;;;14.80;1.00;;;;;;5005915;28;20460;-76
2023/07/26 01:56:29;;;;;;;15.93;10.83;;;14.80;1.00;;;;;;5003952;28;20198;-77
2023/07/26 01:58:55;;;;;;;17.03;10.03;;;14.70;1.00;;;;;;5005879;28;20656;-78
2023/07/26 02:01:20;;;;;;;12.83;9.90;;;14.70;1.00;;;;;;5006527;28;20179;-76
2023/07/26 02:03:46;;;;;;;14.43;10.80;;;14.70;1.00;;;;;;5006842;28;20277;-77
2023/07/26 02:06:12;;;;;;;17.97;11.30;;;14.70;1.00;;;;;;5006132;28;20179;-75
2023/07/26 02:08:38;;;;;;;16.43;11.50;;;14.80;1.00;;;;;;5005877;28;20260;-78
2023/07/26 02:11:03;;;;;;;17.53;10.40;;;14.60;1.00;;;;;;5006963;28;20449;-75
2023/07/26 02:13:29;;;;;;;19.43;11.07;;;14.50;1.00;;;;;;5005448;28;20552;-76
2023/07/26 02:15:54;;;;;;;17.10;10.87;;;14.50;1.00;;;;;;5007154;28;20193;-78
2023/07/26 02:18:21;;;;;;;14.50;10.60;;;14.50;1.00;;;;;;5003300;28;20224;-77
2023/07/26 02:20:47;;;;;;;19.50;11.13;;;14.50;1.00;;;;;;5005399;28;20552;-75
2023/07/26 02:23:12;;;;;;;17.77;11.23;;;14.40;1.00;;;;;;5005524;28;20447;-77
2023/07/26 02:25:38;;;;;;;13.10;9.60;;;14.50;1.00;;;;;;5006487;28;20186;-75
2023/07/26 02:28:03;;;;;;;20.40;11.00;;;14.50;1.00;;;;;;5007040;28;20195;-77
2023/07/26 02:30:29;;;;;;;16.60;10.60;;;14.50;1.00;;;;;;5006049;28;20704;-76
2023/07/26 02:32:54;;;;;;;18.00;10.13;;;14.50;1.00;;;;;;5003886;28;20193;-76
2023/07/26 02:35:20;;;;;;;13.53;10.17;;;14.50;1.00;;;;;;5004534;28;20203;-76
2023/07/26 02:37:45;;;;;;;16.10;10.70;;;14.50;1.00;;;;;;5006411;28;20282;-76
2023/07/26 02:40:11;;;;;;;12.07;10.37;;;14.40;1.00;;;;;;5005891;28;20207;-75
2023/07/26 02:42:37;;;;;;;14.37;10.07;;;14.40;1.00;;;;;;5005169;28;20249;-75
2023/07/26 02:45:03;;;;;;;12.87;10.07;;;14.40;1.00;;;;;;5006892;28;20209;-76
2023/07/26 02:47:32;;;;;;;13.50;10.00;;;14.50;1.00;;;;;;5005886;28;20703;-76
2023/07/26 02:50:00;;;;;;;14.20;9.67;;;14.50;1.00;;;;;;5006495;28;20747;-75
2023/07/26 02:52:25;;;;;;;14.83;10.17;;;14.50;1.00;;;;;;5008269;28;20440;-77
2023/07/26 02:54:51;;;;;;;17.93;10.37;;;14.50;1.00;;;;;;5009403;28;20976;-74
2023/07/26 02:57:16;;;;;;;16.30;9.73;;;14.50;1.00;;;;;;5008509;28;20707;-76
2023/07/26 02:59:42;;;;;;;14.30;10.10;;;14.50;1.00;;;;;;5008319;28;20281;-77
2023/07/26 03:02:07;;;;;;;15.00;10.40;;;14.50;1.00;;;;;;5009610;28;20248;-76
2023/07/26 03:04:33;;;;;;;14.80;9.57;;;14.50;1.00;;;;;;5009797;28;20628;-76
2023/07/26 03:06:58;;;;;;;14.40;9.30;;;14.50;1.00;;;;;;5008533;28;20202;-75
2023/07/26 03:09:24;;;;;;;14.40;10.40;;;14.50;1.00;;;;;;5009885;28;20179;-76
2023/07/26 03:11:50;;;;;;;13.03;9.50;;;14.50;1.00;;;;;;5007486;28;20572;-78
2023/07/26 03:14:16;;;;;;;16.00;9.87;;;14.50;1.00;;;;;;5009212;28;20452;-76
2023/07/26 03:16:41;;;;;;;11.20;8.83;;;14.60;1.00;;;;;;5008978;28;20193;-77
2023/07/26 03:19:07;;;;;;;13.17;9.70;;;14.60;1.00;;;;;;5006069;28;20624;-76
2023/07/26 03:21:32;;;;;;;13.43;10.67;;;14.60;1.00;;;;;;5007388;28;20179;-76
2023/07/26 03:23:58;;;;;;;15.20;10.87;;;14.60;1.00;;;;;;5005670;28;20182;-76
2023/07/26 03:26:23;;;;;;;14.33;10.13;;;14.60;1.00;;;;;;5009426;28;20163;-77
2023/07/26 03:28:49;;;;;;;15.23;9.90;;;14.50;1.00;;;;;;5008710;28;20241;-76
2023/07/26 03:31:14;;;;;;;14.83;9.60;;;14.60;1.00;;;;;;5007981;28;20182;-75
2023/07/26 03:33:40;;;;;;;16.93;9.63;;;14.60;1.00;;;;;;5005837;28;20183;-78
2023/07/26 03:36:05;;;;;;;12.70;9.27;;;14.50;1.00;;;;;;5007138;28;20657;-76
2023/07/26 03:38:31;;;;;;;14.37;9.83;;;14.50;1.00;;;;;;5006366;28;20580;-77
2023/07/26 03:40:56;;;;;;;12.23;10.10;;;14.50;1.00;;;;;;5007929;28;20672;-76
2023/07/26 03:43:22;;;;;;;15.33;9.27;;;14.40;1.00;;;;;;5008175;28;20190;-75
2023/07/26 03:45:48;;;;;;;15.97;9.83;;;14.40;1.00;;;;;;5008651;28;20225;-76
2023/07/26 03:48:13;;;;;;;20.47;9.63;;;14.30;1.00;;;;;;5007291;28;21687;-75
2023/07/26 03:50:39;;;;;;;12.83;9.70;;;14.30;1.00;;;;;;5008641;28;20184;-77
2023/07/26 03:53:04;;;;;;;17.40;10.33;;;14.30;1.00;;;;;;5008629;28;20183;-76
2023/07/26 03:55:30;;;;;;;17.60;10.20;;;14.20;1.00;;;;;;5007915;28;20557;-75
2023/07/26 03:57:57;;;;;;;16.17;10.60;;;14.30;1.00;;;;;;5005675;28;20653;-76
2023/07/26 04:00:22;;;;;;;16.43;10.60;;;14.20;1.00;;;;;;5008808;28;20444;-76
2023/07/26 04:02:48;;;;;;;15.60;10.30;;;14.20;1.00;;;;;;5006800;28;20441;-76
2023/07/26 04:05:13;;;;;;;14.23;10.63;;;14.20;1.00;;;;;;5008164;28;20262;-78
2023/07/26 04:07:40;;;;;;;20.10;11.27;;;14.20;1.00;;;;;;5007963;28;20205;-76
2023/07/26 04:10:05;;;;;;;13.87;9.93;;;14.20;1.00;;;;;;5008158;28;20222;-76
2023/07/26 04:12:31;;;;;;;16.30;10.90;;;14.30;1.00;;;;;;5007790;28;20481;-76
2023/07/26 04:14:56;;;;;;;14.10;10.10;;;14.30;1.00;;;;;;5007426;28;21076;-75
2023/07/26 04:17:22;;;;;;;17.90;10.10;;;14.30;1.00;;;;;;5008704;28;20201;-81
2023/07/26 04:19:48;;;;;;;13.27;10.30;;;14.30;1.00;;;;;;5007836;28;20209;-75
2023/07/26 04:22:13;;;;;;;13.83;9.50;;;14.30;1.00;;;;;;5008073;28;20189;-76
2023/07/26 04:24:42;;;;;;;15.90;10.20;;;14.40;1.00;;;;;;5008551;28;20182;-75
2023/07/26 04:27:08;;;;;;;13.47;9.70;;;14.50;1.00;;;;;;5007720;28;20564;-75
2023/07/26 04:29:33;;;;;;;16.17;9.77;;;14.50;1.00;;;;;;5005938;28;20444;-75
2023/07/26 04:31:59;;;;;;;12.90;8.50;;;14.50;1.00;;;;;;5002654;28;20191;-75
2023/07/26 04:34:24;;;;;;;11.20;9.53;;;14.50;1.00;;;;;;5007368;28;20189;-75
2023/07/26 04:36:50;;;;;;;15.70;9.80;;;14.50;1.00;;;;;;5007477;28;20206;-76
2023/07/26 04:39:15;;;;;;;13.97;9.73;;;14.50;1.00;;;;;;5007710;28;20213;-75
2023/07/26 04:41:41;;;;;;;12.50;9.63;;;14.50;1.00;;;;;;5007255;28;20186;-78
2023/07/26 04:44:06;;;;;;;15.00;9.40;;;14.50;1.00;;;;;;5008242;28;20712;-75
2023/07/26 04:46:32;;;;;;;13.33;9.70;;;14.60;1.00;;;;;;5006823;28;20186;-77
2023/07/26 04:48:57;;;;;;;14.40;10.13;;;14.60;1.00;;;;;;5007613;28;20210;-77
2023/07/26 04:51:23;;;;;;;13.07;9.67;;;14.70;1.00;;;;;;5002884;28;20241;-75
2023/07/26 04:53:49;;;;;;;13.00;9.60;;;14.80;1.00;;;;;;5004311;28;20178;-77
2023/07/26 04:56:15;;;;;;;13.10;10.30;;;14.90;1.00;;;;;;5007223;28;20210;-76
2023/07/26 04:58:41;;;;;;;10.70;9.60;;;15.00;1.00;;;;;;5006045;28;20297;-76
2023/07/26 05:01:07;;;;;;;11.90;9.07;;;15.10;1.00;;;;;;5006329;28;20528;-75
2023/07/26 05:03:34;;;;;;;13.70;9.60;;;15.10;1.00;;;;;;5007271;28;20193;-75
2023/07/26 05:05:59;;;;;;;10.70;8.83;;;15.10;1.00;;;;;;5005147;28;20204;-75
2023/07/26 05:08:25;;;;;;;14.73;9.30;;;15.10;1.00;;;;;;5006285;28;20461;-75
2023/07/26 05:10:51;;;;;;;13.67;9.90;;;15.00;1.00;;;;;;5006008;28;20726;-77
2023/07/26 05:13:17;;;;;;;11.93;9.77;;;14.90;1.00;;;;;;5005507;28;20186;-75
2023/07/26 05:15:42;;;;;;;17.93;10.27;;;14.90;1.00;;;;;;5005970;28;20270;-76
2023/07/26 05:18:08;;;;;;;11.53;9.80;;;15.00;1.00;;;;;;5003561;28;20644;-76
2023/07/26 05:20:33;;;;;;;12.53;9.20;;;15.00;1.00;;;;;;5006088;28;20201;-75
2023/07/26 05:22:59;;;;;;;14.33;9.70;;;15.10;1.00;;;;;;5006115;28;20261;-77
2023/07/26 05:25:24;;;;;;;20.23;9.90;;;15.20;1.00;;;;;;5006917;28;20561;-74
2023/07/26 05:27:50;;;;;;;12.37;9.30;;;15.30;1.00;;;;;;5005301;28;20202;-75
2023/07/26 05:30:19;;;;;;;13.10;9.60;;;15.20;1.00;;;;;;5005941;28;20182;-76
2023/07/26 05:32:45;;;;;;;14.80;9.60;;;15.20;1.00;;;;;;5007485;28;20556;-75
2023/07/26 05:35:14;;;;;;;15.40;9.17;;;15.20;1.00;;;;;;5006252;28;20433;-77
2023/07/26 05:37:40;;;;;;;11.97;9.07;;;15.30;1.00;;;;;;5011659;28;20452;-76
2023/07/26 05:40:06;;;;;;;12.73;9.23;;;15.20;1.00;;;;;;5004203;28;20465;-78
2023/07/26 05:42:32;;;;;;;17.30;9.80;;;15.10;1.00;;;;;;5006661;28;20189;-78
2023/07/26 05:44:58;;;;;;;13.70;9.00;;;15.00;1.00;;;;;;5008717;28;20872;-78
2023/07/26 05:47:24;;;;;;;11.13;9.27;;;15.00;1.00;;;;;;5007778;28;20445;-76
2023/07/26 05:49:49;;;;;;;13.40;10.03;;;15.00;1.00;;;;;;5009342;28;20440;-76
2023/07/26 05:52:15;;;;;;;11.90;9.63;;;15.00;1.00;;;;;;5008566;28;20269;-75
2023/07/26 05:54:40;;;;;;;13.30;9.30;;;14.90;1.00;;;;;;5008765;28;20214;-77
2023/07/26 05:57:06;;;;;;;13.57;9.40;;;14.90;1.00;;;;;;5006947;28;20225;-76
2023/07/26 05:59:31;;;;;;;12.03;9.23;;;15.20;1.00;;;;;;5007800;28;20587;-76
2023/07/26 06:02:00;;;;;;;12.13;9.30;;;15.00;1.00;;;;;;5004271;28;20710;-76
2023/07/26 06:04:29;;;;;;;12.90;9.40;;;15.10;1.00;;;;;;5003909;28;20193;-76
2023/07/26 06:06:55;;;;;;;11.03;8.90;;;15.30;1.00;;;;;;5032301;22;20497;-75
2023/07/26 06:09:21;;;;;;;12.80;9.27;;;15.40;1.00;;;;;;5005006;28;20939;-76
2023/07/26 06:11:47;;;;;;;15.33;9.53;;;15.60;1.00;;;;;;5009328;28;20444;-75
2023/07/26 06:14:12;;;;;;;11.77;9.03;;;15.80;1.00;;;;;;5007083;28;20985;-75
2023/07/26 06:16:38;;;;;;;10.30;9.30;;;15.80;1.00;;;;;;4999244;28;20207;-74
2023/07/26 06:19:04;;;;;;;11.00;8.90;;;15.80;1.00;;;;;;4989038;28;20214;-76
2023/07/26 06:21:29;;;;;;;12.83;8.90;;;15.60;1.00;;;;;;4987720;28;20664;-77
2023/07/26 06:23:55;;;;;;;12.63;8.90;;;15.50;1.00;;;;;;4984794;28;20192;-76
2023/07/26 06:26:21;;;;;;;12.50;9.27;;;15.50;1.00;;;;;;4990788;28;20202;-76
2023/07/26 06:28:47;;;;;;;21.70;9.83;;;15.40;1.00;;;;;;4990715;28;20268;-75
2023/07/26 06:31:13;;;;;;;12.37;9.90;;;15.40;1.00;;;;;;4992235;28;20466;-78
2023/07/26 06:33:38;;;;;;;11.83;9.20;;;15.50;1.00;;;;;;4986510;28;20214;-76
2023/07/26 06:36:04;;;;;;;12.47;9.00;;;15.50;1.00;;;;;;4990517;28;20261;-76
2023/07/26 06:38:29;;;;;;;12.50;9.50;;;15.30;1.00;;;;;;4989818;28;20215;-76
2023/07/26 06:40:55;;;;;;;12.20;8.00;;;15.10;1.00;;;;;;4992508;28;20206;-76
2023/07/26 06:43:20;;;;;;;15.30;9.80;;;14.90;1.00;;;;;;4989265;28;20234;-77
2023/07/26 06:45:47;;;;;;;13.03;8.03;;;15.00;1.00;;;;;;4988740;28;20872;-76
2023/07/26 06:48:13;;;;;;;13.53;9.07;;;15.00;1.00;;;;;;4984283;28;20180;-74
2023/07/26 06:50:41;;;;;;;11.33;9.30;;;15.00;1.00;;;;;;4992073;28;20583;-76
2023/07/26 06:53:08;;;;;;;13.37;8.10;;;15.20;1.00;;;;;;4992490;28;20441;-76
2023/07/26 06:55:37;;;;;;;13.87;7.97;;;15.20;1.00;;;;;;4990879;28;20468;-76
2023/07/26 06:58:03;;;;;;;14.77;8.57;;;15.10;1.00;;;;;;4989702;28;20468;-77
2023/07/26 07:00:28;;;;;;;12.53;8.83;;;15.20;1.00;;;;;;4990564;28;20477;-76
2023/07/26 07:02:58;;;;;;;12.37;8.67;;;15.20;1.00;;;;;;4990589;28;20190;-78
2023/07/26 07:05:26;;;;;;;16.10;8.70;;;15.40;1.00;;;;;;4985730;28;20190;-76
2023/07/26 07:07:51;;;;;;;13.43;9.40;;;15.40;1.00;;;;;;4994621;28;20450;-77
2023/07/26 07:10:17;;;;;;;12.70;8.87;;;15.30;1.00;;;;;;4995892;28;20423;-77
2023/07/26 07:12:42;;;;;;;12.83;8.87;;;15.90;1.00;;;;;;4993591;28;20179;-76
2023/07/26 07:15:09;;;;;;;9.93;8.17;;;15.30;1.00;;;;;;4994587;28;20688;-75
2023/07/26 07:17:34;;;;;;;11.97;9.27;;;15.20;1.00;;;;;;4993689;28;20337;-76
2023/07/26 07:20:00;;;;;;;13.37;9.07;;;15.20;1.00;;;;;;4994082;28;20556;-73
2023/07/26 07:22:25;;;;;;;12.50;8.93;;;15.10;1.00;;;;;;4993940;28;20188;-74
2023/07/26 07:24:53;;;;;;;12.43;9.00;;;15.00;1.00;;;;;;4994000;28;20193;-74
2023/07/26 07:27:18;;;;;;;11.47;8.60;;;14.90;1.00;;;;;;4993397;28;20570;-73
2023/07/26 07:29:44;;;;;;;11.20;9.43;;;14.90;1.00;;;;;;4994221;28;20438;-73
2023/07/26 07:32:10;;;;;;;10.50;9.50;;;14.90;1.00;;;;;;4999828;28;20218;-73
2023/07/26 07:34:35;;;;;;;19.83;10.23;;;15.00;1.00;;;;;;4994262;28;20191;-74
2023/07/26 07:37:00;;;;;;;10.17;8.50;;;15.00;1.00;;;;;;4992810;28;20217;-74
2023/07/26 07:39:26;;;;;;;13.40;9.17;;;15.20;1.00;;;;;;4993593;28;20211;-73
2023/07/26 07:41:52;;;;;;;11.50;8.37;;;15.30;1.00;;;;;;4993469;28;20237;-74
2023/07/26 07:44:17;;;;;;;11.97;8.40;;;15.30;1.00;;;;;;4993705;28;20186;-72
2023/07/26 07:46:44;;;;;;;10.50;8.83;;;15.40;1.00;;;;;;4993528;28;20215;-73
2023/07/26 07:49:10;;;;;;;13.53;9.07;;;15.30;1.00;;;;;;4993842;28;20203;-75
2023/07/26 07:51:35;;;;;;;8.80;8.00;;;15.80;1.00;;;;;;4993007;28;20468;-74
2023/07/26 07:54:01;;;;;;;9.27;8.23;;;16.30;1.00;;;;;;4993502;28;20365;-75
2023/07/26 07:56:26;;;;;;;9.30;7.90;;;16.50;1.00;;;;;;4992558;28;20222;-76
2023/07/26 07:58:52;;;;;;;12.00;7.93;;;16.60;1.00;;;;;;4993583;28;20230;-75
2023/07/26 08:01:17;;;;;;;11.13;7.73;;;16.90;1.00;;;;;;4993872;28;20302;-76
2023/07/26 08:03:43;;;;;;;9.50;8.50;;;17.20;1.00;;;;;;4993034;28;20321;-75
2023/07/26 08:06:09;;;;;;;10.53;7.20;;;17.50;1.00;;;;;;4992704;28;20561;-76
2023/07/26 08:08:35;;;;;;;9.10;8.20;;;17.60;1.00;;;;;;4993096;28;20195;-75
2023/07/26 08:11:02;;;;;;;9.20;8.30;;;17.70;1.00;;;;;;4993528;28;20433;-75
2023/07/26 08:13:28;;;;;;;9.97;8.57;;;17.60;1.00;;;;;;4991760;28;20198;-75
2023/07/26 08:15:56;;;;;;;9.97;8.00;;;18.10;1.00;;;;;;4991591;28;20435;-75
2023/07/26 08:18:22;;;;;;;13.43;8.27;;;18.10;1.00;;;;;;4995435;28;20705;-74
2023/07/26 08:20:47;;;;;;;10.47;8.30;;;18.10;1.00;;;;;;4993342;28;20502;-75
2023/07/26 08:23:13;;;;;;;8.90;8.00;;;18.20;1.00;;;;;;4993289;28;20250;-76
2023/07/26 08:25:39;;;;;;;9.60;8.17;;;;;;;;;;4992785;28;20176;-75
2023/07/26 08:28:05;;;;;;;11.20;8.17;;;18.70;1.00;;;;;;4992833;28;20179;-75
2023/07/26 08:30:30;;;;;;;9.27;7.93;;;18.70;1.00;;;;;;4992854;28;20421;-74
2023/07/26 08:32:56;;;;;;;8.97;7.97;;;18.60;1.00;;;;;;4985059;28;20202;-75
2023/07/26 08:35:22;;;;;;;9.57;7.93;;;18.70;1.00;;;;;;4992456;28;20708;-75
2023/07/26 08:37:47;;;;;;;10.00;7.80;;;18.80;1.00;;;;;;4991091;28;20286;-74
2023/07/26 08:40:13;;;;;;;8.07;7.00;;;19.30;1.00;;;;;;4992698;28;20288;-75
2023/07/26 08:42:39;;;;;;;8.83;7.60;;;19.40;1.00;;;;;;4992218;28;20179;-75
2023/07/26 08:45:06;;;;;;;11.00;7.73;;;19.10;1.00;;;;;;4992601;28;20196;-75
2023/07/26 08:47:34;;;;;;;8.13;7.23;;;19.20;1.00;;;;;;4991906;28;20203;-74
2023/07/26 08:50:02;;;;;;;8.97;7.20;;;19.20;1.00;;;;;;4991870;28;20502;-75
2023/07/26 08:52:29;;;;;;;9.20;7.37;;;19.10;1.00;;;;;;4991864;28;20418;-74
2023/07/26 08:54:55;;;;;;;10.67;7.40;;;19.20;1.00;;;;;;4990920;28;20953;-76
2023/07/26 08:57:21;;;;;;;8.10;6.40;;;19.60;1.00;;;;;;4991910;28;20430;-76
2023/07/26 08:59:47;;;;;;;9.33;6.13;;;19.80;1.00;;;;;;4991910;28;20468;-74
2023/07/26 09:02:15;;;;;;;7.50;6.07;;;20.00;1.00;;;;;;4992043;28;20410;-75
2023/07/26 09:04:40;;;;;;;8.60;5.80;;;20.00;1.00;;;;;;4991587;28;20175;-75
2023/07/26 09:07:06;;;;;;;7.90;5.60;;;20.30;1.00;;;;;;4991700;28;20541;-74
2023/07/26 09:09:33;;;;;;;7.10;5.40;;;20.30;1.00;;;;;;4991738;28;20658;-74
2023/07/26 09:11:59;;;;;;;7.27;5.43;;;20.30;1.00;;;;;;4991928;28;20662;-74
2023/07/26 09:14:27;;;;;;;9.20;5.20;;;20.50;1.00;;;;;;4991455;28;20465;-72
2023/07/26 09:17:00;;;;;;;8.90;4.90;;;20.30;1.00;;;;;;4993553;28;20476;-75
2023/07/26 09:19:35;;;;;;;6.30;4.80;;;20.30;1.00;;;;;;4994866;28;20449;-73
2023/07/26 09:22:03;;;;;;;6.73;4.50;;;20.70;1.00;;;;;;4992281;28;20429;-74
2023/07/26 09:24:34;;;;;;;5.97;4.43;;;21.30;1.00;;;;;;4991768;28;20437;-74
2023/07/26 09:27:19;;;;;;;7.37;4.20;;;21.60;1.00;;;;;;4991346;28;20629;-75
2023/07/26 09:29:55;;;;;;;6.43;4.40;;;21.50;1.00;;;;;;4991895;28;20418;-74
2023/07/26 09:32:28;;;;;;;5.33;4.10;;;21.40;1.00;;;;;;4991405;28;20430;-75
2023/07/26 09:34:55;;;;;;;7.50;4.43;;;21.60;1.00;;;;;;4990803;28;20797;-75
2023/07/26 09:37:21;;;;;;;5.50;3.97;;;21.80;1.00;;;;;;4991882;28;20441;-76
2023/07/26 09:39:47;;;;;;;5.00;4.07;;;21.90;1.00;;;;;;4991851;28;20699;-75
2023/07/26 09:42:12;;;;;;;7.43;4.17;;;22.10;1.00;;;;;;4992058;28;20262;-75
2023/07/26 09:44:38;;;;;;;4.67;3.80;;;22.40;1.00;;;;;;4991609;28;20179;-72
2023/07/26 09:47:05;;;;;;;6.53;4.00;;;22.70;1.00;;;;;;4991643;28;20673;-75
2023/07/26 09:49:31;;;;;;;5.77;4.40;;;22.90;1.00;;;;;;4991668;28;20680;-74
2023/07/26 09:52:01;;;;;;;7.00;3.73;;;22.80;1.00;;;;;;4992068;28;20508;-74
2023/07/26 09:54:29;;;;;;;8.77;4.50;;;22.30;1.00;;;;;;4990385;28;20182;-75
2023/07/26 09:56:55;;;;;;;4.63;4.00;;;22.20;1.00;;;;;;4983162;28;20445;-75
2023/07/26 09:59:25;;;;;;;4.50;3.83;;;22.20;1.00;;;;;;4991981;28;21002;-72
2023/07/26 10:01:52;;;;;;;6.00;3.90;;;21.80;1.00;;;;;;4995331;28;20421;-74
2023/07/26 10:04:50;;;;;;;5.40;3.80;;;21.30;1.00;;;;;;4995571;28;20998;-74
2023/07/26 10:07:17;;;;;;;5.20;3.57;;;22.60;1.00;;;;;;4988883;28;20492;-76
2023/07/26 10:09:45;;;;;;;6.83;3.87;;;25.20;1.00;;;;;;4994716;28;20476;-75
2023/07/26 10:12:12;;;;;;;6.53;3.50;;;26.80;1.00;;;;;;4997335;28;20933;-75
2023/07/26 10:14:39;;;;;;;5.20;3.33;;;27.00;1.00;;;;;;4994780;28;20440;-75
2023/07/26 10:17:06;;;;;;;4.50;3.40;;;26.20;1.00;;;;;;4995120;28;20527;-76
2023/07/26 10:19:32;;;;;;;6.83;3.50;;;25.80;1.00;;;;;;4995316;28;20456;-73
2023/07/26 10:21:58;;;;;;;4.07;2.73;;;25.60;1.00;;;;;;4994778;28;20410;-75
2023/07/26 10:24:25;;;;;;;5.43;2.40;;;25.80;1.00;;;;;;4994793;28;20942;-75
2023/07/26 10:26:52;;;;;;;4.80;2.80;;;26.60;1.00;;;;;;4994553;28;20322;-75
2023/07/26 10:29:19;;;;;;;5.10;2.70;;;27.80;1.00;;;;;;4995150;28;20418;-75
2023/07/26 10:31:45;;;;;;;4.57;2.83;;;29.30;1.00;;;;;;4995020;28;20414;-75
2023/07/26 10:34:20;;;;;;;6.17;2.90;;;29.40;1.00;;;;;;4995219;28;20204;-75
2023/07/26 10:36:46;;;;;;;3.80;2.73;;;29.00;1.00;;;;;;4993973;28;20548;-77
2023/07/26 10:39:12;;;;;;;6.30;2.80;;;27.60;1.00;;;;;;4993863;28;20205;-75
2023/07/26 10:41:47;;;;;;;8.93;2.87;;;25.80;1.00;;;;;;4993410;28;20175;-77
2023/07/26 10:44:13;;;;;;;7.03;2.97;;;24.50;1.00;;;;;;4994602;28;20437;-75
2023/07/26 10:46:51;;;;;;;7.20;2.80;;;23.50;1.00;;;;;;4994294;28;20470;-75
2023/07/26 10:49:28;;;;;;;4.67;2.93;;;22.80;1.00;;;;;;4995000;28;20215;-74
2023/07/26 10:52:04;;;;;;;4.30;2.90;;;22.20;1.00;;;;;;4994777;28;20958;-74
2023/07/26 10:54:47;;;;;;;9.37;3.50;;;22.10;1.00;;;;;;4994900;28;20418;-75
2023/07/26 10:57:20;;;;;;;6.50;4.20;;;21.90;1.00;;;;;;4994544;28;20456;-75
2023/07/26 10:59:52;;;;;;;6.97;3.23;;;21.50;1.00;;;;;;4995068;28;20466;-74
2023/07/26 11:02:46;;;;;;;4.77;3.00;;;21.40;1.00;;;;;;4994560;28;20991;-75
2023/07/26 11:05:14;;;;;;;4.50;2.97;;;21.40;1.00;;;;;;4988500;28;20901;-74
2023/07/26 11:07:54;;;;;;;6.20;3.03;;;21.60;1.00;;;;;;4994271;28;20453;-74
2023/07/26 11:10:22;;;;;;;3.80;2.70;;;22.00;1.00;;;;;;4992845;28;20781;-75
2023/07/26 11:12:50;;;;;;;4.27;2.53;;;22.60;1.00;;;;;;4993597;28;20418;-75
2023/07/26 11:15:29;;;;;;;7.80;3.07;;;23.00;1.00;;;;;;4999840;28;20406;-74
2023/07/26 11:17:55;;;;;;;4.83;2.93;;;23.40;1.00;;;;;;4994281;28;20430;-75
2023/07/26 11:20:20;;;;;;;6.80;2.93;;;23.60;1.00;;;;;;4994245;28;20460;-73
2023/07/26 11:22:46;;;;;;;6.67;3.20;;;23.20;1.00;;;;;;4994562;28;20232;-74
2023/07/26 11:25:11;;;;;;;4.50;2.70;;;22.70;1.00;;;;;;4994264;28;20657;-74
2023/07/26 11:27:37;;;;;;;5.70;3.00;;;22.20;1.00;;;;;;4993966;28;20195;-72
2023/07/26 11:30:03;;;;;;;5.40;2.60;;;21.70;1.00;;;;;;4994491;28;20171;-75
2023/07/26 11:32:29;;;;;;;5.23;2.70;;;21.40;1.00;;;;;;4992831;28;20186;-74
2023/07/26 11:34:55;;;;;;;3.93;2.83;;;22.10;1.00;;;;;;4992876;28;20414;-74
2023/07/26 11:37:21;;;;;;;6.30;4.00;;;24.90;1.00;;;;;;4993621;28;20202;-75
2023/07/26 11:39:46;;;;;;;3.87;2.60;;;27.20;1.00;;;;;;4993717;28;20462;-75
2023/07/26 11:42:16;;;;;;;4.60;2.60;;;28.60;1.00;;;;;;4994238;28;20262;-75
2023/07/26 11:44:42;;;;;;;5.73;2.70;;;29.40;1.00;;;;;;4993935;28;20274;-74
2023/07/26 11:47:07;;;;;;;4.47;2.63;;;29.20;1.00;;;;;;4994246;28;20528;-75
2023/07/26 11:49:34;;;;;;;5.50;2.97;;;30.20;1.00;;;;;;4994453;28;20287;-75
2023/07/26 11:51:59;;;;;;;3.93;2.67;;;29.90;1.00;;;;;;4994724;28;20178;-75
2023/07/26 11:54:25;;;;;;;5.73;2.47;;;30.40;1.00;;;;;;4994424;28;20184;-76
2023/07/26 11:56:50;;;;;;;5.40;2.53;;;31.30;1.00;;;;;;4994056;28;20198;-75
2023/07/26 11:59:16;;;;;;;4.90;2.55;;;32.80;1.00;;;;;;4994408;28;20557;-75
2023/07/26 12:01:42;;;;;;;4.60;2.80;;;33.30;1.00;;;;;;4993723;28;20622;-75
2023/07/26 12:04:12;;;;;;;4.13;2.58;;;32.80;1.00;;;;;;4993835;28;20221;-76
2023/07/26 12:06:40;;;;;;;4.53;2.92;;;31.00;1.00;;;;;;4994569;28;20242;-75
2023/07/26 12:09:09;;;;;;;4.20;2.42;;;31.40;1.00;;;;;;4985696;28;20174;-75
2023/07/26 12:11:47;;;;;;;4.53;2.53;;;30.70;1.00;;;;;;4993613;28;20530;-75
2023/07/26 12:14:15;;;;;;;5.53;3.07;;;28.90;1.00;;;;;;4993278;28;20190;-75
2023/07/26 12:16:47;;;;;;;5.23;2.70;;;27.30;1.00;;;;;;4994746;28;20199;-72
2023/07/26 12:19:13;;;;;;;5.73;2.97;;;27.30;1.00;;;;;;4993246;28;20202;-75
2023/07/26 12:21:38;;;;;;;4.30;2.70;;;28.30;1.00;;;;;;4991940;28;20572;-71
2023/07/26 12:24:04;;;;;;;3.93;2.90;;;29.20;1.00;;;;;;4992663;28;20252;-75
2023/07/26 12:26:33;;;;;;;4.10;2.80;;;28.20;1.00;;;;;;4992531;28;20193;-74
2023/07/26 12:29:02;;;;;;;5.63;2.90;;;27.40;1.00;;;;;;4990913;28;20645;-74
2023/07/26 12:31:29;;;;;;;5.93;3.07;;;26.70;1.00;;;;;;4992193;28;20426;-75
2023/07/26 12:33:58;;;;;;;4.80;3.00;;;26.10;1.00;;;;;;4991962;28;20429;-75
2023/07/26 12:36:46;;;;;;;6.10;3.00;;;26.70;1.00;;;;;;4992269;28;20758;-74
2023/07/26 12:39:14;;;;;;;6.30;3.20;;;27.00;1.00;;;;;;4984819;28;20963;-75
2023/07/26 12:41:41;;;;;;;6.37;3.20;;;25.80;1.00;;;;;;4986231;28;20426;-73
2023/07/26 12:44:07;;;;;;;5.23;3.37;;;24.70;1.00;;;;;;4991831;28;20888;-74
2023/07/26 12:46:37;;;;;;;4.70;3.10;;;24.00;1.00;;;;;;4992042;28;20434;-74